createdAt,value
2022-08-05T00:03:30.026Z,23.58
2022-08-05T00:08:35.475Z,23.59
2022-08-05T00:13:40.100Z,23.45
2022-08-05T00:18:48.291Z,23.30
2022-08-05T00:24:09.881Z,23.19
2022-08-05T00:29:11.794Z,23.22
2022-08-05T00:34:53.754Z,23.16
2022-08-05T00:39:37.017Z,23.16
2022-08-05T00:44:46.149Z,23.09
2022-08-05T00:49:51.428Z,23.06
2022-08-05T00:54:53.461Z,23.03
2022-08-05T00:59:57.619Z,23.00
2022-08-05T01:04:59.893Z,22.99
2022-08-05T01:10:02.572Z,22.99
2022-08-05T01:15:35.319Z,22.91
2022-08-05T01:20:51.924Z,22.96
2022-08-05T01:26:18.706Z,22.95
2022-08-05T01:31:45.194Z,22.95
2022-08-05T01:36:49.364Z,22.94
2022-08-05T01:41:52.999Z,22.97
2022-08-05T01:46:55.246Z,22.99
2022-08-05T01:52:01.077Z,22.99
2022-08-05T01:58:11.959Z,23.04
2022-08-05T02:02:28.807Z,22.91
2022-08-05T02:07:34.914Z,22.71
2022-08-05T02:12:50.996Z,22.53
2022-08-05T02:18:30.717Z,22.41
2022-08-05T02:23:33.786Z,22.30
2022-08-05T02:28:41.662Z,22.09
2022-08-05T02:33:57.368Z,21.72
2022-08-05T02:39:02.922Z,21.62
2022-08-05T02:44:13.301Z,21.36
2022-08-05T02:49:19.171Z,20.75
2022-08-05T02:54:36.170Z,20.69
2022-08-05T02:59:47.864Z,20.60
2022-08-05T03:04:54.454Z,20.60
2022-08-05T03:09:56.102Z,20.65
2022-08-05T03:14:57.748Z,20.68
2022-08-05T03:19:59.533Z,20.58
2022-08-05T03:25:32.588Z,20.62
2022-08-05T03:30:30.149Z,20.60
2022-08-05T03:35:40.784Z,20.52
2022-08-05T03:40:47.557Z,20.46
2022-08-05T03:45:57.861Z,20.50
2022-08-05T03:52:37.396Z,20.44
2022-08-05T03:56:44.285Z,20.30
2022-08-05T04:01:50.868Z,20.32
2022-08-05T04:06:54.127Z,20.30
2022-08-05T04:11:57.979Z,20.30
2022-08-05T04:17:00.375Z,20.33
2022-08-05T04:22:10.323Z,20.43
2022-08-05T04:27:14.100Z,20.12
2022-08-05T04:32:30.675Z,19.89
2022-08-05T04:38:02.452Z,19.93
2022-08-05T04:42:55.239Z,20.16
2022-08-05T04:48:26.899Z,20.14
2022-08-05T04:53:29.327Z,20.30
2022-08-05T04:58:35.400Z,20.45
2022-08-05T05:03:42.102Z,20.55
2022-08-05T05:08:44.336Z,20.57
2022-08-05T05:13:51.597Z,20.54
2022-08-05T05:19:17.752Z,20.67
2022-08-05T05:24:18.467Z,20.86
2022-08-05T05:29:20.045Z,20.88
2022-08-05T05:34:27.109Z,20.80
2022-08-05T05:39:34.427Z,20.86
2022-08-05T05:44:42.967Z,20.99
2022-08-05T05:49:47.701Z,21.04
2022-08-05T05:55:02.261Z,21.39
2022-08-05T06:00:13.078Z,21.35
2022-08-05T06:05:17.205Z,21.50
2022-08-05T06:10:19.097Z,21.51
2022-08-05T06:15:24.226Z,21.74
2022-08-05T06:20:26.098Z,22.02
2022-08-05T06:26:12.620Z,22.14
2022-08-05T06:30:51.868Z,21.92
2022-08-05T06:36:07.777Z,21.65
2022-08-05T06:41:12.773Z,21.77
2022-08-05T06:46:15.025Z,21.82
2022-08-05T06:51:23.755Z,21.60
2022-08-05T06:56:34.255Z,21.87
2022-08-05T07:01:36.875Z,21.52
2022-08-05T07:06:38.629Z,21.52
2022-08-05T07:11:40.253Z,21.59
2022-08-05T07:18:00.997Z,21.55
2022-08-05T07:22:04.333Z,21.56
2022-08-05T07:27:08.901Z,21.34
2022-08-05T07:32:10.596Z,21.47
2022-08-05T07:37:12.191Z,21.95
2022-08-05T07:42:16.170Z,22.49
2022-08-05T07:47:17.957Z,22.10
2022-08-05T07:52:20.590Z,22.00
2022-08-05T07:57:51.383Z,21.95
2022-08-05T08:03:14.862Z,21.76
2022-08-05T08:08:12.170Z,21.36
2022-08-05T08:13:14.225Z,21.28
2022-08-05T08:18:23.869Z,21.14
2022-08-05T08:24:02.973Z,21.01
2022-08-05T08:28:58.914Z,20.85
2022-08-05T08:34:01.552Z,20.70
2022-08-05T08:39:03.371Z,20.77
2022-08-05T08:45:19.016Z,20.88
2022-08-05T08:50:06.021Z,20.62
2022-08-05T08:54:55.715Z,20.45
2022-08-05T08:59:59.520Z,20.55
2022-08-05T09:05:16.786Z,20.85
2022-08-05T09:10:20.725Z,20.85
2022-08-05T09:15:29.004Z,20.59
2022-08-05T09:20:36.348Z,20.61
2022-08-05T09:26:02.374Z,21.38
2022-08-05T09:31:43.938Z,21.62
2022-08-05T09:36:54.154Z,21.88
2022-08-05T09:42:03.117Z,21.71
2022-08-05T09:47:49.003Z,21.14
2022-08-05T09:52:58.224Z,22.16
2022-08-05T09:58:00.238Z,21.87
2022-08-05T10:03:10.038Z,21.79
2022-08-05T10:08:36.307Z,21.62
2022-08-05T10:13:47.792Z,20.90
2022-08-05T10:18:51.427Z,20.67
2022-08-05T10:23:58.974Z,20.42
2022-08-05T10:29:02.269Z,20.43
2022-08-05T10:34:06.949Z,20.76
2022-08-05T10:39:24.394Z,20.62
2022-08-05T10:44:45.245Z,20.67
2022-08-05T10:50:33.151Z,21.28
2022-08-05T10:55:30.159Z,21.83
2022-08-05T11:00:46.264Z,21.70
2022-08-05T11:06:15.283Z,21.86
2022-08-05T11:11:44.729Z,21.92
2022-08-05T11:17:57.289Z,21.64
2022-08-05T11:22:53.935Z,21.76
2022-08-05T11:28:10.802Z,23.04
2022-08-05T11:33:46.511Z,24.85
2022-08-05T11:38:51.847Z,24.92
2022-08-05T11:44:11.975Z,25.42
2022-08-05T11:49:15.175Z,25.84
2022-08-05T11:54:55.019Z,25.04
2022-08-05T11:59:57.870Z,26.71
2022-08-05T12:05:07.422Z,27.15
2022-08-05T12:10:13.164Z,27.27
2022-08-05T12:15:33.271Z,27.36
2022-08-05T12:20:39.409Z,29.10
2022-08-05T12:25:57.006Z,27.81
2022-08-05T12:31:02.410Z,27.08
2022-08-05T12:36:08.267Z,26.61
2022-08-05T12:41:13.927Z,28.20
2022-08-05T12:46:28.856Z,29.26
2022-08-05T12:52:12.541Z,29.97
2022-08-05T12:56:55.067Z,28.05
2022-08-05T13:02:07.666Z,26.99
2022-08-05T13:07:17.379Z,26.51
2022-08-05T13:12:28.679Z,27.59
2022-08-05T13:17:41.308Z,27.61
2022-08-05T13:22:48.330Z,27.39
2022-08-05T13:27:54.894Z,26.46
2022-08-05T13:32:56.632Z,29.50
2022-08-05T13:37:58.217Z,28.52
2022-08-05T13:43:06.720Z,28.14
2022-08-05T13:48:57.336Z,26.82
2022-08-05T13:53:35.483Z,29.45
2022-08-05T13:58:53.009Z,29.36
2022-08-05T14:03:55.472Z,29.13
2022-08-05T14:08:59.553Z,27.39
2022-08-05T14:14:01.302Z,28.39
2022-08-05T14:19:05.861Z,25.87
2022-08-05T14:24:07.534Z,26.79
2022-08-05T14:29:15.961Z,27.79
2022-08-05T14:34:17.967Z,29.20
2022-08-05T14:39:25.503Z,28.17
2022-08-05T14:44:30.128Z,26.91
2022-08-05T14:49:56.147Z,26.32
2022-08-05T14:54:53.505Z,25.76
2022-08-05T14:59:55.186Z,26.14
2022-08-05T15:04:58.089Z,26.94
2022-08-05T15:10:03.356Z,28.62
2022-08-05T15:15:05.701Z,29.00
2022-08-05T15:20:19.024Z,27.12
2022-08-05T15:25:23.623Z,26.30
2022-08-05T15:30:45.559Z,27.06
2022-08-05T15:35:48.054Z,27.57
2022-08-05T15:41:04.090Z,27.11
2022-08-05T15:46:13.135Z,26.73
2022-08-05T15:51:16.173Z,26.33
2022-08-05T15:56:19.157Z,26.07
2022-08-05T16:01:22.243Z,25.97
2022-08-05T16:06:31.172Z,25.72
2022-08-05T16:11:42.790Z,25.54
2022-08-05T16:16:46.117Z,26.00
2022-08-05T16:22:00.359Z,26.75
2022-08-05T16:27:04.762Z,25.70
2022-08-05T16:32:09.782Z,25.56
2022-08-05T16:38:01.714Z,25.21
2022-08-05T16:42:35.101Z,24.96
2022-08-05T16:47:48.295Z,24.67
2022-08-05T16:52:57.232Z,24.84
2022-08-05T16:58:01.457Z,24.67
2022-08-05T17:03:15.402Z,24.80
2022-08-05T17:08:36.423Z,25.01
2022-08-05T17:13:45.387Z,25.14
2022-08-05T17:18:47.023Z,24.82
2022-08-05T17:24:04.827Z,25.08
2022-08-05T17:29:10.316Z,24.96
2022-08-05T17:34:11.923Z,25.04
2022-08-05T17:39:23.894Z,24.70
2022-08-05T17:44:32.489Z,24.36
2022-08-05T17:49:59.640Z,24.23
2022-08-05T17:54:55.888Z,24.03
2022-08-05T18:00:05.561Z,24.06
2022-08-05T18:05:08.295Z,24.05
2022-08-05T18:10:11.453Z,23.84
2022-08-05T18:15:15.821Z,24.17
2022-08-05T18:20:17.368Z,23.65
2022-08-05T18:25:19.109Z,23.53
2022-08-05T18:30:23.801Z,23.50
2022-08-05T18:35:49.516Z,23.54
2022-08-05T18:41:56.162Z,23.53
2022-08-05T18:46:12.868Z,23.37
2022-08-05T18:52:04.795Z,23.13
2022-08-05T18:56:36.003Z,22.78
2022-08-05T19:01:48.145Z,22.68
2022-08-05T19:06:59.896Z,22.50
2022-08-05T19:12:01.826Z,22.18
2022-08-05T19:17:03.503Z,21.94
2022-08-05T19:22:08.172Z,21.81
2022-08-05T19:27:10.285Z,21.38
2022-08-05T19:32:12.143Z,21.18
2022-08-05T19:37:15.533Z,21.14
2022-08-05T19:42:17.375Z,21.21
2022-08-05T19:47:19.798Z,21.24
2022-08-05T19:52:31.399Z,21.19
2022-08-05T19:57:47.695Z,20.95
2022-08-05T20:02:55.657Z,21.08
2022-08-05T20:07:59.027Z,20.88
2022-08-05T20:13:00.933Z,20.72
2022-08-05T20:18:02.951Z,20.57
2022-08-05T20:23:04.921Z,20.49
2022-08-05T20:28:07.807Z,20.56
2022-08-05T20:33:15.549Z,20.71
2022-08-05T20:38:22.661Z,20.75
2022-08-05T20:43:58.306Z,20.59
2022-08-05T20:48:51.077Z,20.51
2022-08-05T20:53:56.176Z,20.35
2022-08-05T20:59:00.095Z,20.08
2022-08-05T21:04:12.943Z,19.98
2022-08-05T21:09:15.096Z,20.12
2022-08-05T21:14:16.893Z,20.09
2022-08-05T21:19:20.500Z,20.00
2022-08-05T21:24:25.188Z,20.00
2022-08-05T21:29:32.187Z,19.83
2022-08-05T21:34:35.595Z,19.75
2022-08-05T21:39:40.409Z,19.71
2022-08-05T21:44:42.524Z,19.64
2022-08-05T21:50:00.091Z,19.54
2022-08-05T21:55:06.418Z,19.49
2022-08-05T22:00:11.260Z,19.42
2022-08-05T22:05:16.204Z,19.28
2022-08-05T22:10:27.065Z,19.10
2022-08-05T22:15:56.438Z,19.00
2022-08-05T22:20:51.725Z,19.07
2022-08-05T22:26:10.682Z,18.84
2022-08-05T22:31:13.081Z,18.80
2022-08-05T22:36:17.115Z,18.67
2022-08-05T22:42:05.481Z,18.54
2022-08-05T22:46:41.611Z,18.35
2022-08-05T22:52:05.559Z,18.36
2022-08-05T22:57:06.050Z,18.48
2022-08-05T23:02:08.106Z,18.44
2022-08-05T23:07:09.746Z,18.28
2022-08-05T23:12:14.658Z,18.17
2022-08-05T23:17:16.451Z,18.16
2022-08-05T23:22:27.828Z,18.09
2022-08-05T23:27:42.250Z,18.04
2022-08-05T23:32:45.328Z,18.01
2022-08-05T23:37:47.023Z,18.12
2022-08-05T23:42:53.548Z,18.02
2022-08-05T23:47:59.399Z,18.01
2022-08-05T23:53:03.231Z,17.93
2022-08-05T23:58:04.986Z,17.71
